createdAt,value
2023-03-15T00:02:07.450Z,4.44
2023-03-15T00:04:37.095Z,4.35
2023-03-15T00:07:06.589Z,3.72
2023-03-15T00:09:34.409Z,4.30
2023-03-15T00:12:02.529Z,4.33
2023-03-15T00:14:31.568Z,4.30
2023-03-15T00:16:59.520Z,4.09
2023-03-15T00:19:27.401Z,3.62
2023-03-15T00:21:55.291Z,4.17
2023-03-15T00:24:25.245Z,4.38
2023-03-15T00:26:53.177Z,4.25
2023-03-15T00:29:21.132Z,3.97
2023-03-15T00:31:50.040Z,4.23
2023-03-15T00:34:18.950Z,4.15
2023-03-15T00:36:46.975Z,4.17
2023-03-15T00:39:15.284Z,4.05
2023-03-15T00:41:45.651Z,3.90
2023-03-15T00:44:13.967Z,4.38
2023-03-15T00:46:41.842Z,3.99
2023-03-15T00:49:09.888Z,4.23
2023-03-15T00:51:37.842Z,3.72
2023-03-15T00:54:05.848Z,3.89
2023-03-15T00:56:33.710Z,3.88
2023-03-15T00:59:03.696Z,4.17
2023-03-15T01:01:31.818Z,4.06
2023-03-15T01:03:59.778Z,4.21
2023-03-15T01:06:29.695Z,4.19
2023-03-15T01:08:59.981Z,2.64
2023-03-15T01:11:29.764Z,4.24
2023-03-15T01:13:59.318Z,4.54
2023-03-15T01:16:28.950Z,4.35
2023-03-15T01:18:57.460Z,4.29
2023-03-15T01:21:26.314Z,4.14
2023-03-15T01:23:54.871Z,4.19
2023-03-15T01:26:23.376Z,4.14
2023-03-15T01:28:51.897Z,4.28
2023-03-15T01:31:23.885Z,4.27
2023-03-15T01:33:53.388Z,4.51
2023-03-15T01:36:22.026Z,4.28
2023-03-15T01:38:50.791Z,4.57
2023-03-15T01:41:23.210Z,4.17
2023-03-15T01:43:52.169Z,4.25
2023-03-15T01:46:29.114Z,4.16
2023-03-15T01:49:25.705Z,4.49
2023-03-15T01:51:58.480Z,4.62
2023-03-15T01:54:35.087Z,4.50
2023-03-15T01:57:07.264Z,4.79
2023-03-15T01:59:39.685Z,4.53
2023-03-15T02:02:08.947Z,4.36
2023-03-15T02:04:46.543Z,4.62
2023-03-15T02:07:19.313Z,4.81
2023-03-15T02:09:55.383Z,4.48
2023-03-15T02:12:23.247Z,4.49
2023-03-15T02:14:54.083Z,4.57
2023-03-15T02:17:30.043Z,4.24
2023-03-15T02:20:07.114Z,4.50
2023-03-15T02:22:45.919Z,3.79
2023-03-15T02:25:22.847Z,4.66
2023-03-15T02:27:52.761Z,4.41
2023-03-15T02:30:21.064Z,4.29
2023-03-15T02:32:49.341Z,4.47
2023-03-15T02:35:25.226Z,4.09
2023-03-15T02:37:53.966Z,4.44
2023-03-15T02:40:23.825Z,4.17
2023-03-15T02:42:57.187Z,4.39
2023-03-15T02:45:27.491Z,4.25
2023-03-15T02:47:55.962Z,4.15
2023-03-15T02:50:24.146Z,4.15
2023-03-15T02:52:52.813Z,4.25
2023-03-15T02:55:21.757Z,4.16
2023-03-15T02:57:50.009Z,4.18
2023-03-15T03:00:19.885Z,4.13
2023-03-15T03:02:49.358Z,3.86
2023-03-15T03:05:17.849Z,3.92
2023-03-15T03:07:46.880Z,4.03
2023-03-15T03:10:17.169Z,4.25
2023-03-15T03:12:53.580Z,3.67
2023-03-15T03:15:28.566Z,4.17
2023-03-15T03:17:56.834Z,4.16
2023-03-15T03:20:25.395Z,4.34
2023-03-15T03:22:55.928Z,4.46
2023-03-15T03:25:27.017Z,4.47
2023-03-15T03:27:57.309Z,4.33
2023-03-15T03:30:28.565Z,4.51
2023-03-15T03:32:56.740Z,4.51
2023-03-15T03:35:24.650Z,4.68
2023-03-15T03:37:54.073Z,4.64
2023-03-15T03:40:31.837Z,4.39
2023-03-15T03:43:00.035Z,4.56
2023-03-15T03:45:29.290Z,4.47
2023-03-15T03:47:59.407Z,3.88
2023-03-15T03:50:27.654Z,4.47
2023-03-15T03:52:55.755Z,4.35
2023-03-15T03:55:27.924Z,4.29
2023-03-15T03:57:55.734Z,4.64
2023-03-15T04:00:40.299Z,4.38
2023-03-15T04:03:09.623Z,4.18
2023-03-15T04:05:39.788Z,4.42
2023-03-15T04:08:07.718Z,4.42
2023-03-15T04:10:39.733Z,3.97
2023-03-15T04:13:07.774Z,4.19
2023-03-15T04:15:35.903Z,3.86
2023-03-15T04:18:05.961Z,4.20
2023-03-15T04:20:39.761Z,4.43
2023-03-15T04:23:08.428Z,3.84
2023-03-15T04:25:55.716Z,3.84
2023-03-15T04:28:40.376Z,4.15
2023-03-15T04:31:27.119Z,4.10
2023-03-15T04:34:15.251Z,4.10
2023-03-15T04:37:01.643Z,4.14
2023-03-15T04:39:55.704Z,4.17
2023-03-15T04:42:35.523Z,4.35
2023-03-15T04:45:14.425Z,4.05
2023-03-15T04:48:02.205Z,3.56
2023-03-15T04:50:39.628Z,4.20
2023-03-15T04:53:39.066Z,4.08
2023-03-15T04:56:42.155Z,4.08
2023-03-15T04:59:22.910Z,4.15
2023-03-15T05:02:12.970Z,4.27
2023-03-15T05:04:59.309Z,4.02
2023-03-15T05:07:42.326Z,4.16
2023-03-15T05:10:33.410Z,4.33
2023-03-15T05:13:19.162Z,4.30
2023-03-15T05:16:07.641Z,4.35
2023-03-15T05:18:38.108Z,4.10
2023-03-15T05:21:28.999Z,4.25
2023-03-15T05:24:16.909Z,4.21
2023-03-15T05:27:14.280Z,4.22
2023-03-15T05:30:10.580Z,4.28
2023-03-15T05:33:05.427Z,4.34
2023-03-15T05:35:45.533Z,4.23
2023-03-15T05:38:39.667Z,4.16
2023-03-15T05:41:19.422Z,4.20
2023-03-15T05:44:01.717Z,4.24
2023-03-15T05:46:57.371Z,4.28
2023-03-15T05:49:38.466Z,4.14
2023-03-15T05:52:26.732Z,4.29
2023-03-15T05:55:10.476Z,4.09
2023-03-15T05:57:58.139Z,4.45
2023-03-15T06:00:44.317Z,4.46
2023-03-15T06:03:25.150Z,4.40
2023-03-15T06:05:59.246Z,4.23
2023-03-15T06:08:37.015Z,4.67
2023-03-15T06:11:05.214Z,4.37
2023-03-15T06:13:34.884Z,4.37
2023-03-15T06:16:08.342Z,4.28
2023-03-15T06:18:40.750Z,4.40
2023-03-15T06:21:09.915Z,4.44
2023-03-15T06:23:38.606Z,4.38
2023-03-15T06:26:06.761Z,4.14
2023-03-15T06:28:37.291Z,4.70
2023-03-15T06:31:08.787Z,4.47
2023-03-15T06:33:43.172Z,4.84
2023-03-15T06:36:12.750Z,4.67
2023-03-15T06:38:41.830Z,4.68
2023-03-15T06:41:09.858Z,4.62
2023-03-15T06:43:39.917Z,4.21
2023-03-15T06:46:07.978Z,4.76
2023-03-15T06:48:36.128Z,4.89
2023-03-15T06:51:05.921Z,4.65
2023-03-15T06:53:34.688Z,4.84
2023-03-15T06:56:02.711Z,4.92
2023-03-15T06:58:30.828Z,4.73
2023-03-15T07:01:00.019Z,4.65
2023-03-15T07:03:27.884Z,4.77
2023-03-15T07:05:55.856Z,4.75
2023-03-15T07:08:25.623Z,4.97
2023-03-15T07:10:53.785Z,4.16
2023-03-15T07:13:21.623Z,5.00
2023-03-15T07:15:53.243Z,5.07
2023-03-15T07:18:22.568Z,5.14
2023-03-15T07:20:57.052Z,4.91
2023-03-15T07:23:24.952Z,4.51
2023-03-15T07:25:55.467Z,4.62
2023-03-15T07:28:25.042Z,4.83
2023-03-15T07:30:57.753Z,4.90
2023-03-15T07:33:28.558Z,5.07
2023-03-15T07:35:57.204Z,5.19
2023-03-15T07:38:26.570Z,4.76
2023-03-15T07:40:54.523Z,5.04
2023-03-15T07:43:22.755Z,5.15
2023-03-15T07:45:58.053Z,5.08
2023-03-15T07:48:29.342Z,4.85
2023-03-15T07:50:57.908Z,4.90
2023-03-15T07:53:25.929Z,5.11
2023-03-15T07:55:54.146Z,5.01
2023-03-15T07:58:22.050Z,5.13
2023-03-15T08:00:49.888Z,4.56
2023-03-15T08:03:18.259Z,4.76
2023-03-15T08:05:47.530Z,5.30
2023-03-15T08:08:15.347Z,5.47
2023-03-15T08:10:44.674Z,5.46
2023-03-15T08:13:12.591Z,5.73
2023-03-15T08:15:40.813Z,5.71
2023-03-15T08:18:08.724Z,5.82
2023-03-15T08:20:36.562Z,5.74
2023-03-15T08:23:06.363Z,5.86
2023-03-15T08:25:34.174Z,5.91
2023-03-15T08:28:02.022Z,5.41
2023-03-15T08:30:29.955Z,5.51
2023-03-15T08:32:57.990Z,5.39
2023-03-15T08:35:25.979Z,5.52
2023-03-15T08:37:53.885Z,5.65
2023-03-15T08:40:25.785Z,5.48
2023-03-15T08:42:54.440Z,5.44
2023-03-15T08:45:23.944Z,5.38
2023-03-15T08:47:55.403Z,5.71
2023-03-15T08:50:23.358Z,5.55
2023-03-15T08:52:51.751Z,5.80
2023-03-15T08:55:19.761Z,6.05
2023-03-15T08:57:49.373Z,6.35
2023-03-15T09:00:20.748Z,5.80
2023-03-15T09:02:49.886Z,6.17
2023-03-15T09:05:18.402Z,6.11
2023-03-15T09:07:47.262Z,6.08
2023-03-15T09:10:17.295Z,5.77
2023-03-15T09:12:47.445Z,6.49
2023-03-15T09:15:17.063Z,6.86
2023-03-15T09:17:45.121Z,6.86
2023-03-15T09:20:18.741Z,6.91
2023-03-15T09:22:52.650Z,6.99
2023-03-15T09:25:21.458Z,6.75
2023-03-15T09:27:49.450Z,6.91
2023-03-15T09:30:19.232Z,7.19
2023-03-15T09:32:47.152Z,7.69
2023-03-15T09:35:17.533Z,7.55
2023-03-15T09:37:45.350Z,7.45
2023-03-15T09:40:18.967Z,7.46
2023-03-15T09:43:07.183Z,6.82
2023-03-15T09:46:02.092Z,6.58
2023-03-15T09:48:33.733Z,7.70
2023-03-15T09:51:07.755Z,7.60
2023-03-15T09:53:42.784Z,7.55
2023-03-15T09:56:23.905Z,7.83
2023-03-15T09:58:56.091Z,7.72
2023-03-15T10:01:30.228Z,7.79
2023-03-15T10:03:58.389Z,7.86
2023-03-15T10:06:36.461Z,7.98
2023-03-15T10:09:14.960Z,7.87
2023-03-15T10:11:51.040Z,7.67
2023-03-15T10:14:33.744Z,7.69
2023-03-15T10:17:08.374Z,7.79
2023-03-15T10:19:45.919Z,8.13
2023-03-15T10:22:22.219Z,8.48
2023-03-15T10:24:52.973Z,8.32
2023-03-15T10:27:23.502Z,7.91
2023-03-15T10:29:53.902Z,7.58
2023-03-15T10:32:28.415Z,7.56
2023-03-15T10:34:58.717Z,7.27
2023-03-15T10:37:26.843Z,7.98
2023-03-15T10:39:57.508Z,7.85
2023-03-15T10:42:27.816Z,8.24
2023-03-15T10:44:55.553Z,7.91
2023-03-15T10:47:26.588Z,7.62
2023-03-15T10:49:58.455Z,7.73
2023-03-15T10:52:29.565Z,7.73
2023-03-15T10:55:02.473Z,7.56
2023-03-15T10:57:36.709Z,7.52
2023-03-15T11:00:19.826Z,7.27
2023-03-15T11:02:53.078Z,7.46
2023-03-15T11:05:21.519Z,7.55
2023-03-15T11:07:56.964Z,8.00
2023-03-15T11:10:26.951Z,8.31
2023-03-15T11:13:13.575Z,8.57
2023-03-15T11:15:50.292Z,8.36
2023-03-15T11:18:21.573Z,8.14
2023-03-15T11:20:49.908Z,8.10
2023-03-15T11:23:21.882Z,7.62
2023-03-15T11:25:50.618Z,8.06
2023-03-15T11:28:21.916Z,8.12
2023-03-15T11:30:50.824Z,8.21
2023-03-15T11:33:38.915Z,8.27
2023-03-15T11:36:12.444Z,7.91
2023-03-15T11:38:44.177Z,8.21
2023-03-15T11:41:28.218Z,8.65
2023-03-15T11:44:03.705Z,8.30
2023-03-15T11:46:37.828Z,8.30
2023-03-15T11:49:15.328Z,8.37
2023-03-15T11:51:43.365Z,8.03
2023-03-15T11:54:15.584Z,8.52
2023-03-15T11:56:53.109Z,8.67
2023-03-15T11:59:26.581Z,8.54
2023-03-15T12:01:58.578Z,8.70
2023-03-15T12:04:52.600Z,8.97
2023-03-15T12:07:34.746Z,8.91
2023-03-15T12:10:30.565Z,8.95
2023-03-15T12:13:00.557Z,8.62
2023-03-15T12:15:49.089Z,8.49
2023-03-15T12:18:40.833Z,8.33
2023-03-15T12:21:13.903Z,8.35
2023-03-15T12:23:46.405Z,8.60
2023-03-15T12:26:26.604Z,8.66
2023-03-15T12:29:06.820Z,8.81
2023-03-15T12:31:53.560Z,8.67
2023-03-15T12:34:28.071Z,8.84
2023-03-15T12:37:04.082Z,8.67
2023-03-15T12:39:45.092Z,8.71
2023-03-15T12:42:15.855Z,8.96
2023-03-15T12:44:44.962Z,8.78
2023-03-15T12:47:13.551Z,8.89
2023-03-15T12:49:43.800Z,8.28
2023-03-15T12:52:28.424Z,8.82
2023-03-15T12:55:02.166Z,8.15
2023-03-15T12:57:32.249Z,8.02
2023-03-15T13:00:06.260Z,8.11
2023-03-15T13:02:43.206Z,7.86
2023-03-15T13:05:20.606Z,8.23
2023-03-15T13:08:05.673Z,8.78
2023-03-15T13:11:00.310Z,8.55
2023-03-15T13:14:01.810Z,8.43
2023-03-15T13:16:38.186Z,8.17
2023-03-15T13:19:17.683Z,8.20
2023-03-15T13:22:00.423Z,8.06
2023-03-15T13:24:38.839Z,7.15
2023-03-15T13:27:14.479Z,6.86
2023-03-15T13:29:42.469Z,6.47
2023-03-15T13:32:15.374Z,6.39
2023-03-15T13:34:45.746Z,6.54
2023-03-15T13:37:16.614Z,6.61
2023-03-15T13:39:57.472Z,6.80
2023-03-15T13:42:26.303Z,6.89
2023-03-15T13:45:14.292Z,6.69
2023-03-15T13:47:44.073Z,6.80
2023-03-15T13:50:16.149Z,7.01
2023-03-15T13:52:44.769Z,6.92
2023-03-15T13:55:17.045Z,6.82
2023-03-15T13:57:45.478Z,7.21
2023-03-15T14:00:17.043Z,6.87
2023-03-15T14:02:54.102Z,7.07
2023-03-15T14:05:27.375Z,7.04
2023-03-15T14:08:02.816Z,7.20
2023-03-15T14:10:34.614Z,6.78
2023-03-15T14:13:22.370Z,7.06
2023-03-15T14:15:50.781Z,7.08
2023-03-15T14:18:24.034Z,6.95
2023-03-15T14:20:59.868Z,6.91
2023-03-15T14:23:30.090Z,7.03
2023-03-15T14:26:13.754Z,7.01
2023-03-15T14:28:43.658Z,7.23
2023-03-15T14:31:24.122Z,7.04
2023-03-15T14:34:00.806Z,7.24
2023-03-15T14:36:35.385Z,7.28
2023-03-15T14:39:03.372Z,7.51
2023-03-15T14:41:34.125Z,7.49
2023-03-15T14:44:03.222Z,7.43
2023-03-15T14:46:32.401Z,7.04
2023-03-15T14:49:00.412Z,7.39
2023-03-15T14:51:29.874Z,7.21
2023-03-15T14:53:59.941Z,7.26
2023-03-15T14:56:28.145Z,6.87
2023-03-15T14:58:57.354Z,7.19
2023-03-15T15:01:28.057Z,7.32
2023-03-15T15:03:59.756Z,7.40
2023-03-15T15:06:29.453Z,7.46
2023-03-15T15:08:59.715Z,7.55
2023-03-15T15:11:27.795Z,7.57
2023-03-15T15:13:57.753Z,7.63
2023-03-15T15:16:25.794Z,7.42
2023-03-15T15:18:53.700Z,7.52
2023-03-15T15:21:28.239Z,7.35
2023-03-15T15:23:59.378Z,7.47
2023-03-15T15:26:29.046Z,7.64
2023-03-15T15:28:58.477Z,7.58
2023-03-15T15:31:28.282Z,7.65
2023-03-15T15:33:57.598Z,7.71
2023-03-15T15:36:27.945Z,7.69
2023-03-15T15:38:56.483Z,7.65
2023-03-15T15:41:26.073Z,7.87
2023-03-15T15:43:54.569Z,7.91
2023-03-15T15:46:24.319Z,7.81
2023-03-15T15:48:52.802Z,7.83
2023-03-15T15:51:28.843Z,7.92
2023-03-15T15:53:59.170Z,7.83
2023-03-15T15:56:32.982Z,7.79
2023-03-15T15:59:03.078Z,7.79
2023-03-15T16:01:32.943Z,7.71
2023-03-15T16:04:01.988Z,7.62
2023-03-15T16:06:29.948Z,7.69
2023-03-15T16:08:58.263Z,7.29
2023-03-15T16:11:26.908Z,7.75
2023-03-15T16:13:54.979Z,6.69
2023-03-15T16:16:23.385Z,7.70
2023-03-15T16:18:52.768Z,7.86
2023-03-15T16:21:27.629Z,7.63
2023-03-15T16:23:59.491Z,6.90
2023-03-15T16:26:27.503Z,7.40
2023-03-15T16:28:55.704Z,7.47
2023-03-15T16:31:23.864Z,7.40
2023-03-15T16:33:53.154Z,7.64
2023-03-15T16:36:23.473Z,7.69
2023-03-15T16:38:51.106Z,7.76
2023-03-15T16:41:19.138Z,7.71
2023-03-15T16:43:49.205Z,7.60
2023-03-15T16:46:17.759Z,7.67
2023-03-15T16:48:45.666Z,7.62
2023-03-15T16:51:17.199Z,7.35
2023-03-15T16:53:45.673Z,7.46
2023-03-15T16:56:16.316Z,6.83
2023-03-15T16:58:45.646Z,7.22
2023-03-15T17:01:13.707Z,7.09
2023-03-15T17:03:41.672Z,7.01
2023-03-15T17:06:20.151Z,6.87
2023-03-15T17:08:48.434Z,6.82
2023-03-15T17:11:17.252Z,6.88
2023-03-15T17:13:45.248Z,6.78
2023-03-15T17:16:13.608Z,6.64
2023-03-15T17:18:42.956Z,6.61
2023-03-15T17:21:14.339Z,6.01
2023-03-15T17:23:44.088Z,5.79
2023-03-15T17:26:14.752Z,6.53
2023-03-15T17:28:43.669Z,6.49
2023-03-15T17:31:31.039Z,6.47
2023-03-15T17:33:59.452Z,6.32
2023-03-15T17:36:30.940Z,6.06
2023-03-15T17:39:00.371Z,5.99
2023-03-15T17:41:31.445Z,5.90
2023-03-15T17:43:59.803Z,5.76
2023-03-15T17:46:30.187Z,5.59
2023-03-15T17:48:59.064Z,5.51
2023-03-15T17:51:29.019Z,5.57
2023-03-15T17:53:59.251Z,5.57
2023-03-15T17:56:28.339Z,5.53
2023-03-15T17:58:56.433Z,5.43
2023-03-15T18:01:27.425Z,4.77
2023-03-15T18:03:57.045Z,5.01
2023-03-15T18:06:25.282Z,5.12
2023-03-15T18:08:53.263Z,4.84
2023-03-15T18:11:25.458Z,4.85
2023-03-15T18:13:55.136Z,4.93
2023-03-15T18:16:23.506Z,4.90
2023-03-15T18:18:51.376Z,4.68
2023-03-15T18:21:21.898Z,4.70
2023-03-15T18:23:50.659Z,4.66
2023-03-15T18:26:19.642Z,4.55
2023-03-15T18:28:49.010Z,4.62
2023-03-15T18:31:20.437Z,4.57
2023-03-15T18:33:48.660Z,4.36
2023-03-15T18:36:16.625Z,4.58
2023-03-15T18:38:45.088Z,4.36
2023-03-15T18:41:18.166Z,4.29
2023-03-15T18:43:49.746Z,3.62
2023-03-15T18:46:21.290Z,4.00
2023-03-15T18:48:49.891Z,4.01
2023-03-15T18:51:18.471Z,4.03
2023-03-15T18:53:47.020Z,3.95
2023-03-15T18:56:20.619Z,3.98
2023-03-15T18:58:49.603Z,3.47
2023-03-15T19:01:19.966Z,3.86
2023-03-15T19:03:47.814Z,3.80
2023-03-15T19:06:15.790Z,3.68
2023-03-15T19:08:43.765Z,3.68
2023-03-15T19:11:11.962Z,3.61
2023-03-15T19:13:39.788Z,3.56
2023-03-15T19:16:08.067Z,3.33
2023-03-15T19:18:40.769Z,3.33
2023-03-15T19:21:08.592Z,3.35
2023-03-15T19:23:36.537Z,3.29
2023-03-15T19:26:05.051Z,3.31
2023-03-15T19:28:33.064Z,3.34
2023-03-15T19:31:00.975Z,3.31
2023-03-15T19:33:29.066Z,3.31
2023-03-15T19:35:58.313Z,3.18
2023-03-15T19:38:26.351Z,3.09
2023-03-15T19:40:56.703Z,2.91
2023-03-15T19:43:24.629Z,3.04
2023-03-15T19:45:52.752Z,2.99
2023-03-15T19:48:21.348Z,2.87
2023-03-15T19:50:49.486Z,2.92
2023-03-15T19:53:19.074Z,2.86
2023-03-15T19:55:46.915Z,2.76
2023-03-15T19:58:14.698Z,2.79
2023-03-15T20:00:42.625Z,2.72
2023-03-15T20:03:12.531Z,2.77
2023-03-15T20:05:40.513Z,2.82
2023-03-15T20:08:10.063Z,2.73
2023-03-15T20:10:39.258Z,2.87
2023-03-15T20:13:09.201Z,2.27
2023-03-15T20:15:37.398Z,2.85
2023-03-15T20:18:08.179Z,2.66
2023-03-15T20:20:36.031Z,2.77
2023-03-15T20:23:03.899Z,2.78
2023-03-15T20:25:31.773Z,2.62
2023-03-15T20:28:01.183Z,2.67
2023-03-15T20:30:29.021Z,2.64
2023-03-15T20:32:56.982Z,2.50
2023-03-15T20:35:24.922Z,2.68
2023-03-15T20:37:53.556Z,2.51
2023-03-15T20:40:21.968Z,2.49
2023-03-15T20:42:49.933Z,2.50
2023-03-15T20:45:19.243Z,2.41
2023-03-15T20:47:47.149Z,2.23
2023-03-15T20:50:15.061Z,2.17
2023-03-15T20:52:43.606Z,2.20
2023-03-15T20:55:12.321Z,1.89
2023-03-15T20:57:42.121Z,2.31
2023-03-15T21:00:12.594Z,2.30
2023-03-15T21:02:41.848Z,2.29
2023-03-15T21:05:10.461Z,2.21
2023-03-15T21:07:38.490Z,1.95
2023-03-15T21:10:07.373Z,2.11
2023-03-15T21:12:35.231Z,2.10
2023-03-15T21:15:03.178Z,2.03
2023-03-15T21:17:31.013Z,2.12
2023-03-15T21:20:00.739Z,1.81
2023-03-15T21:22:28.586Z,1.83
2023-03-15T21:24:56.582Z,1.88
2023-03-15T21:27:26.001Z,1.48
2023-03-15T21:29:53.920Z,1.69
2023-03-15T21:32:21.790Z,1.84
2023-03-15T21:34:49.566Z,1.85
2023-03-15T21:37:18.843Z,2.18
2023-03-15T21:39:46.737Z,1.97
2023-03-15T21:42:14.738Z,2.07
2023-03-15T21:44:42.764Z,2.02
2023-03-15T21:47:11.263Z,1.97
2023-03-15T21:49:39.066Z,1.67
2023-03-15T21:52:07.238Z,1.41
2023-03-15T21:54:36.522Z,1.75
2023-03-15T21:57:04.831Z,1.78
2023-03-15T21:59:32.775Z,1.11
2023-03-15T22:02:02.010Z,1.47
2023-03-15T22:04:30.257Z,1.52
2023-03-15T22:06:58.073Z,1.71
2023-03-15T22:09:26.190Z,1.72
2023-03-15T22:11:55.416Z,1.69
2023-03-15T22:14:23.193Z,1.55
2023-03-15T22:16:51.554Z,1.50
2023-03-15T22:19:19.521Z,1.58
2023-03-15T22:21:47.447Z,1.48
2023-03-15T22:24:15.314Z,1.67
2023-03-15T22:26:43.954Z,1.55
2023-03-15T22:29:13.190Z,0.93
2023-03-15T22:31:40.990Z,1.59
2023-03-15T22:34:08.988Z,1.32
2023-03-15T22:36:36.813Z,1.35
2023-03-15T22:39:04.907Z,1.49
2023-03-15T22:41:32.718Z,1.46
2023-03-15T22:44:00.536Z,1.28
2023-03-15T22:46:34.796Z,1.41
2023-03-15T22:49:03.485Z,1.36
2023-03-15T22:51:31.263Z,1.37
2023-03-15T22:53:59.284Z,1.32
2023-03-15T22:56:27.152Z,1.32
2023-03-15T22:58:55.523Z,0.92
2023-03-15T23:01:23.470Z,0.75
2023-03-15T23:03:52.868Z,0.90
2023-03-15T23:06:21.114Z,0.89
2023-03-15T23:08:49.314Z,0.95
2023-03-15T23:11:17.191Z,0.99
2023-03-15T23:13:48.291Z,0.94
2023-03-15T23:16:16.591Z,0.64
2023-03-15T23:18:45.250Z,0.95
2023-03-15T23:21:15.513Z,0.89
2023-03-15T23:23:43.793Z,0.93
2023-03-15T23:26:15.233Z,1.02
2023-03-15T23:28:43.769Z,0.95
2023-03-15T23:31:11.930Z,0.89
2023-03-15T23:33:39.765Z,0.41
2023-03-15T23:36:08.370Z,1.22
2023-03-15T23:38:37.659Z,1.17
2023-03-15T23:41:05.940Z,0.99
2023-03-15T23:43:34.412Z,1.16
2023-03-15T23:46:04.865Z,1.14
2023-03-15T23:48:35.192Z,1.19
2023-03-15T23:51:04.180Z,1.12
2023-03-15T23:53:32.440Z,1.17
2023-03-15T23:56:01.832Z,1.23
2023-03-15T23:58:29.996Z,1.17
